Tiempo atmosférico en la estación meteorológica de Navalmoral De La Mata, Cáceres (269 m.)



Fecha
DESCASC
Temp. máxima en grados centígrados (hora)
DESCASC
Temp. mínima en grados centígrados (hora)
DESCASC
Temp. media en grados centígrados
DESCASC
Racha de viento máxima en m/sg (hora)
DESCASC
Velocidad máxima media en intervalos de 10 minutos(hora)
DESCASC
Precipitaciones diarias en mm
DESCASC
Precipitaciones de 00:00 a 06:00 en mm
DESCASC
Precipitaciones de 06:00 a 12:00 en mm
DESCASC
Precipitaciones de 12:00 a 18:00 en mm
DESCASC
Precipitaciones de 18:00 a 24:00 en mm
DESCASC
17-09-2020 26.5 (18:10) 18.9 (23:50) 22.7 10 (13:20) 5.28 (10:40) 5.4 0 0 0 5.4
16-09-2020 32.5 (16:10) 13.9 (08:00) 23.2 8.33 (17:10) 3.89 (15:50) 0 0 0 0 0
15-09-2020 30.3 (17:10) 16.2 (08:30) 23.3 5.83 (16:50) 3.33 (17:10) 0 0 0 0 0
14-09-2020 34.5 (16:40) 19.4 (00:00) 26.9 15.83 (20:00) 5.83 (20:00) 2.2 0 0 0 2.2
13-09-2020 35.7 (17:20) 19.3 (00:00) 27.5 11.11 (11:50) 6.39 (13:30) 0 0 0 0 0
12-09-2020 37.3 (17:00) 16.9 (00:00) 27.1 8.89 (10:40) 4.72 (10:40) 0 0 0 0 0
11-09-2020 35.7 (16:00) 15.4 (00:00) 25.6 8.33 (13:00) 4.44 (13:00) 0 0 0 0 0
10-09-2020 35.1 (17:00) 12.6 (00:00) 23.8 9.72 (10:40) 5 (11:00) 0 0 0 0 0
09-09-2020 33.5 (17:30) 13.1 (00:00) 23.3 8.89 (11:10) 5.28 (10:50) 0 0 0 0 0
08-09-2020 29.9 (17:30) 14.3 (00:00) 22.1 12.5 (11:30) 6.67 (11:20) 0 0 0 0 0
07-09-2020 32.8 (18:10) 18.4 (05:30) 25.6 10.83 (10:10) 6.11 (10:00) 0 0 0 0 0
06-09-2020 37.5 (17:00) 16.7 (00:00) 27.1 9.17 (11:40) 5.28 (11:00) 0 0 0 0 0
05-09-2020 36.8 (18:10) 16.9 (00:00) 26.8 10.28 (11:00) 5 (11:00) 0 0 0 0 0
04-09-2020 36.8 (17:20) 16.9 (00:00) 26.8 9.72 (10:40) 5.28 (11:20) 0 0 0 0 0
03-09-2020 35.6 (16:30) 13.8 (00:00) 24.7 8.61 (10:10) 5.28 (10:10) 0 0 0 0 0
02-09-2020 34.4 (17:00) 12.5 (00:00) 23.5 9.72 (11:10) 5.56 (10:30) 0 0 0 0 0
01-09-2020 33.1 (17:40) 13.4 (00:00) 23.2 6.94 (17:00) 2.78 (18:20) 0 0 0 0 0
31-08-2020 30.4 (17:10) 11 (00:00) 20.7 10.28 (13:10) 5 (11:10) 0 0 0 0 0
30-08-2020 28.1 (17:10) 13.4 (00:00) 20.8 10.28 (10:50) 5.28 (10:50) 0 0 0 0 0
29-08-2020 28.4 (16:30) 12.5 (00:00) 20.4 9.72 (16:30) 4.17 (20:00) 0 0 0 0 0
28-08-2020 34.1 (16:40) 19.9 (00:00) 27 16.67 (13:40) 8.61 (14:30) 0 0 0 0 0
27-08-2020 40.1 (16:50) 15.8 (00:00) 27.9 9.44 (19:20) 3.89 (19:20) 0 0 0 0 0
26-08-2020 39.9 (16:00) 16.4 (00:00) 28.2 10.83 (17:40) 4.17 (17:50) 0 0 0 0 0
25-08-2020 39.5 (16:40) 14.7 (00:00) 27.1 8.06 (15:30) 3.33 (16:30) 0 0 0 0 0
24-08-2020 38 (16:40) 14.9 (00:00) 26.4 9.17 (11:00) 5.28 (11:40) 0 0 0 0 0
23-08-2020 37.1 (17:40) 13.7 (00:00) 25.4 7.78 (12:00) 3.89 (11:30) 0 0 0 0 0
22-08-2020 36.3 (17:50) 13.1 (00:00) 24.7 7.5 (17:50) 3.89 (19:40) 0 0 0 0 0
21-08-2020 32.5 (18:00) 20.9 (00:00) 26.7 10.83 (18:00) 4.44 (16:00) 0 0 0 0 0

Gráficas

Temp. máximas Temp. mínimas Temp. medias Precipitaciones Rachas de viento máximas Velocidades máximas media en intervalos de 10 minutos

Datos horarios

Fecha y hora oficial Temperatura (ºC) Velocidad del viento (km/h) Dirección del viento Racha (km/h) Dirección de racha Precipitación (mm) Presión (hPa) Tendencia (hPa) Humedad (%)
2020-09-19 23:00:00 18.9 4 Oeste 17 Noroeste 0.4 986.4 1.5 81
2020-09-19 22:00:00 20 6 Sudoeste 9 Sudoeste 0 985.8 1.4 71
2020-09-19 21:00:00 20.6 2 Noroeste 17 Noroeste 0 985.2 1 66
2020-09-19 20:00:00 21.7 8 Noroeste 22 Noroeste 0 984.9 0.4 59
2020-09-19 19:00:00 22.8 5 Noroeste 17 Noroeste 0 984.4 -0.3 54
2020-09-19 18:00:00 23.5 6 Noroeste 23 Noroeste 0 984.2 -0.5 51
2020-09-19 17:00:00 23.6 9 Noroeste 30 Noroeste 0 984.5 -0.7 50
2020-09-19 16:00:00 23.7 12 Noroeste 32 Noroeste 0 984.7 -- 48
2020-09-19 15:00:00 23.5 16 Oeste 37 Oeste 0 984.7 -- 47
2020-09-19 14:00:00 21.8 18 Oeste 44 Oeste 0 985.2 -- 58
2020-09-19 13:00:00 20.3 20 Oeste 42 Oeste 0 985.3 -- 68
2020-09-19 12:00:00 20.1 21 Oeste 44 Oeste 0 985 -- 71
2020-09-19 11:00:00 19.5 23 Oeste 38 Sudoeste 0 984.5 -- 73
2020-09-19 10:00:00 17.8 17 Oeste 31 Sudoeste 0.2 984 -- 82
2020-09-19 09:00:00 17.5 15 Oeste 34 Sudoeste 0 983.3 -- 84
2020-09-19 08:00:00 18 18 Sudoeste 32 Sudoeste 0 982.3 -- 81
2020-09-19 07:00:00 18 19 Sudoeste 40 Sudoeste 0 981.9 -- 81
2020-09-19 06:00:00 18.2 21 Oeste 44 Sudoeste 0 981.4 -- 81
2020-09-19 05:00:00 18 18 Sudoeste 44 Sudoeste 0 981.1 -- 83
2020-09-19 04:00:00 17.1 19 Sudoeste 42 Sudoeste 0.2 981 -- 89
2020-09-19 03:00:00 16.7 13 Sudoeste 26 Sudoeste 1.8 981.3 -- 93
2020-09-19 02:00:00 16.7 12 Sudoeste 22 Sudoeste 0.6 981.5 -- 94
2020-09-19 01:00:00 15.8 7 Sudeste 13 Este 0 981.5 -- 94
2020-09-19 00:00:00 15.8 5 Nordeste 13 Este 0 981.6 -- 94
2020-09-18 23:00:00 15.7 6 Este 19 Este 3.6 981.4 -- 93
2020-09-18 22:00:00 15.6 9 Este 45 Norte 14 980.8 -- 93
2020-09-18 21:00:00 16.5 17 Este 34 Nordeste 4.8 979.1 -- 90
2020-09-18 20:00:00 17.4 13 Este 26 Este 0.8 980.1 -- 82
2020-09-18 19:00:00 18.7 18 Este 33 Este 0 979.8 -- 73
2020-09-18 18:00:00 20 15 Sudeste 30 Este 0 980.1 -- 68
2020-09-18 17:00:00 19.4 11 Este 24 Este 0 980.1 -- 82
2020-09-18 16:00:00 19.8 4 Sur 17 Sudoeste 1.4 980.3 -- 83
2020-09-18 15:00:00 20.1 4 Nordeste 27 Sudeste 2 979.8 -- 80
2020-09-18 14:00:00 23.1 10 Este 24 Este 0 980.5 -- 52
2020-09-18 13:00:00 23.1 9 Este 20 Sudeste 0 980.8 -- 54
2020-09-18 12:00:00 21.6 8 Este 19 Este 0 981.1 -- 64
2020-09-18 11:00:00 20.6 9 Este 17 Este 0 981.4 -- 75
2020-09-18 10:00:00 18.3 7 Este 13 Este 0 981.1 -- 87
2020-09-18 09:00:00 16.2 5 Este 11 Nordeste 0 980.6 -- 92
2020-09-18 08:00:00 15.8 7 Nordeste 12 Nordeste 0 979.9 -- 92
2020-09-18 07:00:00 16.3 7 Este 12 Este 0.6 979.5 -- 91
2020-09-18 06:00:00 16.3 5 Este 15 Sur 0.6 979 -- 90
2020-09-18 05:00:00 16.5 10 Sudeste 19 Sur 0.6 979.6 -- 88
2020-09-18 04:00:00 17.9 3 Sudeste 18 Nordeste 2.2 979.4 -- 89
2020-09-18 03:00:00 18.4 9 Sudoeste 25 Sudoeste 1.2 979.9 -- 88
2020-09-18 02:00:00 18.6 8 Sudoeste 12 Sudoeste 0 979.6 -- 88
2020-09-18 01:00:00 18.7 4 Sur 9 Nordeste 0 979.7 -- 88
2020-09-18 00:00:00 18.9 2 Oeste 12 Sudoeste 0 980.3 -- 86
2020-09-17 23:00:00 19.2 9 Este 23 Nordeste 0.2 980.3 -- 85
2020-09-17 22:00:00 19.7 12 Este 28 Este 1 979.6 -- 82
2020-09-17 21:00:00 19.2 8 Nordeste 17 Nordeste 0 978.4 -- 84
2020-09-17 20:00:00 20.6 10 Nordeste 19 Norte 0.6 978.1 -- 84
2020-09-17 19:00:00 22.7 7 Sur 33 Este 3.6 979 -- 74
2020-09-17 18:00:00 26.4 16 Este 32 Este 0 978.4 -- 48
2020-09-17 17:00:00 25.4 11 Este 30 Este 0 979.8 -- 52
2020-09-17 16:00:00 25.4 9 Sudeste 30 Nordeste 0 980.1 -- 51
2020-09-17 15:00:00 25.2 14 Este 30 Este 0 980.8 -- 52
2020-09-17 14:00:00 25.2 5 Sudeste 36 Sudeste 0 981.5 -- 50
2020-09-17 13:00:00 25.3 9 Sudeste 24 Sur 0 981.9 -- 48
2020-09-17 12:00:00 25.4 15 Este 33 Este 0 982.4 -- 48
2020-09-17 11:00:00 24.8 17 Este 33 Este 0 982.6 -- 50
2020-09-17 10:00:00 22.4 15 Este 29 Este 0 982.6 -- 59
2020-09-17 09:00:00 21.6 13 Este 28 Este 0 982.6 -- 61
2020-09-17 08:00:00 21.9 14 Este 27 Este 0 982.3 -- 59
2020-09-17 07:00:00 22.1 9 Este 17 Este 0 981.9 -- 59
2020-09-17 06:00:00 21.8 9 Nordeste 14 Nordeste 0 981.9 -- 62
2020-09-17 05:00:00 23.1 9 Sudeste 28 Sudeste 0 981.7 -- 52
2020-09-17 04:00:00 22.6 6 Este 10 Sudeste 0 982.3 -- 56
2020-09-17 03:00:00 22.9 4 Sudeste 14 Este 0 982.7 -- 53
2020-09-17 02:00:00 21.9 6 Nordeste 12 Este 0 982.7 -- 61
2020-09-17 01:00:00 22.3 8 Nordeste 11 Nordeste 0 982.8 -- 57
2020-09-17 00:00:00 23.1 5 Nordeste 10 Nordeste 0 982.6 -- 51
2020-09-16 23:00:00 24.4 6 Oeste 12 Sudoeste 0 982.4 -- 41
2020-09-16 22:00:00 24.7 4 Sudoeste 6 Sudoeste 0 982.1 -- 40
2020-09-16 21:00:00 26.5 4 Oeste 9 Oeste 0 981.9 -- 33
2020-09-16 20:00:00 28.6 3 Sudoeste 12 Sudoeste 0 981.8 -- 29
2020-09-16 19:00:00 30.4 5 Sudeste 14 Sudoeste 0 982 -- 24
2020-09-16 18:00:00 31.4 8 Este 30 Nordeste 0 982 -- 21
2020-09-16 17:00:00 31.8 9 Nordeste 23 Nordeste 0 982.4 -- 20
2020-09-16 16:00:00 32.3 10 Este 26 Este 0 983.2 -- 20
2020-09-16 15:00:00 32.2 9 Este 28 Este 0 984.1 -- 21
2020-09-16 14:00:00 31.2 10 Este 24 Sudeste 0 985.1 -- 26
2020-09-16 13:00:00 27.6 8 Este 19 Este 0 986 -- 37
2020-09-16 12:00:00 25.3 9 Este 17 Nordeste 0 986.8 -- 45
2020-09-16 11:00:00 21.2 8 Nordeste 14 Norte 0 987.2 -- 65
2020-09-16 10:00:00 18.4 5 Este 10 Este 0 987.4 -- 74
2020-09-16 09:00:00 15.3 5 Este 9 Este 0 987 -- 89
2020-09-16 08:00:00 14 2 Este 6 Este 0 986.9 -- 89
2020-09-16 07:00:00 14.6 3 Sudeste 6 Nordeste 0 986.9 -- 88
2020-09-16 06:00:00 14.6 2 Nordeste 8 Nordeste 0 986.9 -- 86
2020-09-16 05:00:00 15 4 Nordeste 6 Nordeste 0 987.3 -- 84
2020-09-16 04:00:00 16.2 3 Sudeste 8 Nordeste 0 987.4 -- 80
2020-09-16 03:00:00 17.2 3 Noroeste 10 Oeste 0 987.5 -- 75
2020-09-16 02:00:00 17.5 5 Oeste 10 Oeste 0 987.5 -- 76
2020-09-16 01:00:00 18.1 5 Sudoeste 7 Sudoeste 0 987.7 -- 74
2020-09-16 00:00:00 19.4 3 Noroeste 16 Oeste 0 987.5 -- 70
2020-09-15 23:00:00 20.7 4 Norte 6 Norte 0 987.4 -- 64
2020-09-15 22:00:00 22.6 6 Norte 8 Norte 0 987 -- 54
2020-09-15 21:00:00 25.3 3 Nordeste 4 Nordeste 0 986.6 -- 45
2020-09-15 20:00:00 28.5 3 Nordeste 16 Nordeste 0 986.6 -- 34
2020-09-15 19:00:00 29.4 8 Nordeste 15 Este 0 986.5 -- 32
2020-09-15 18:00:00 29.9 9 Norte 21 Este 0 986.7 -- 32
2020-09-15 17:00:00 30 10 Nordeste 21 Nordeste 0 987.1 -- 33
2020-09-15 16:00:00 29.5 5 Nordeste 16 Norte 0 987.8 -- 34
2020-09-15 15:00:00 29.4 6 Este 14 Este 0 988.4 -- 34
2020-09-15 14:00:00 28.4 6 Oeste 19 Norte 0 989.1 -- 38
2020-09-15 13:00:00 26.7 4 Sudoeste 11 Sur 0 989.8 -- 45
2020-09-15 12:00:00 24.3 4 Norte 12 Oeste 0 990.2 -- 58
2020-09-15 11:00:00 22.4 5 Noroeste 12 Oeste 0 990.3 -- 67
2020-09-15 10:00:00 19.9 2 Oeste 5 Sudoeste 0 990 -- 89
2020-09-15 09:00:00 17.5 3 Norte 5 Norte 0 989.5 -- 92
2020-09-15 08:00:00 16.5 3 Sudeste 8 Este 0 988.9 -- 92
2020-09-15 07:00:00 16.9 3 Nordeste 7 Sudeste 0 988.5 -- 91
2020-09-15 06:00:00 17.5 3 Sudeste 6 Este 0 988.2 -- 91
2020-09-15 05:00:00 18 0 Calma 6 Nordeste 0 988.2 -- 90
2020-09-15 04:00:00 18.5 4 Sudoeste 6 Sur 0 988.1 -- 90
2020-09-15 03:00:00 18.9 2 Noroeste 8 Norte 0 988 -- 89
2020-09-15 02:00:00 19.4 4 Nordeste 7 Norte 0 988 -- 88
2020-09-15 01:00:00 20.1 5 Sudoeste 11 Sudoeste 0 987.7 -- 87
2020-09-15 00:00:00 20.4 6 Sudoeste 12 Nordeste 0 987.3 -- 85
2020-09-14 23:00:00 20.9 4 Nordeste 27 Sur 0.6 986.9 -- 82
2020-09-14 22:00:00 20.8 8 Sur 19 Sur 0.2 986.4 -- 79
2020-09-14 21:00:00 20.6 8 Nordeste 35 Oeste 1.4 985.4 -- 78
2020-09-14 20:00:00 26.5 21 Oeste 57 Oeste 0 985.3 -- 43
2020-09-14 19:00:00 31.4 6 Norte 17 Noroeste 0 984.3 -- 24
2020-09-14 18:00:00 33.3 6 Norte 17 Norte 0 984.8 -- 21
2020-09-14 17:00:00 34.2 8 Sur 21 Sur 0 985.3 -- 20
2020-09-14 16:00:00 33.2 5 Este 30 Este 0 986.2 -- 21
2020-09-14 15:00:00 32.7 9 Este 31 Sudeste 0 987.1 -- 22
2020-09-14 14:00:00 31.7 10 Este 24 Este 0 988.1 -- 24
2020-09-14 13:00:00 30.2 12 Este 28 Nordeste 0 988.7 -- 27
2020-09-14 12:00:00 28.6 15 Este 31 Este 0 989.3 -- 30
2020-09-14 11:00:00 26.8 13 Sudeste 27 Este 0 989.3 -- 35
2020-09-14 10:00:00 23.7 10 Este 18 Este 0 989 -- 42
2020-09-14 09:00:00 22.2 8 Este 15 Sudeste 0 988.8 -- 43
2020-09-14 08:00:00 20.4 5 Sudeste 10 Este 0 988.4 -- 48
2020-09-14 07:00:00 19.6 5 Sudeste 8 Sur 0 988 -- 49
2020-09-14 06:00:00 19.9 5 Sudeste 10 Norte 0 987.6 -- 50
2020-09-14 05:00:00 19.4 4 Norte 11 Norte 0 987.8 -- 48
2020-09-14 04:00:00 20.6 5 Sur 7 Sur 0 987.8 -- 45
2020-09-14 03:00:00 22.5 3 Sur 13 Sur 0 988 -- 38
2020-09-14 02:00:00 23 5 Sudeste 15 Nordeste 0 987.9 -- 35
2020-09-14 01:00:00 23.5 9 Este 14 Este 0 987.4 -- 34
2020-09-14 00:00:00 24.6 6 Sudoeste 15 Sudeste 0 987.4 -- 33
2020-09-13 23:00:00 26.1 7 Sudeste 13 Sudeste 0 986.7 -- 31
2020-09-13 22:00:00 27.4 7 Este 10 Este 0 986.4 -- 30
2020-09-13 21:00:00 29.3 8 Este 12 Este 0 985.7 -- 26
2020-09-13 20:00:00 32.7 6 Este 21 Este 0 985.8 -- 20
2020-09-13 19:00:00 33.8 9 Este 30 Este 0 985.9 -- 18
2020-09-13 18:00:00 35.4 13 Este 31 Este 0 986 -- 16
2020-09-13 17:00:00 34.3 16 Este 29 Este 0 986.4 -- 17
2020-09-13 16:00:00 33.8 17 Este 34 Este 0 987.1 -- 19
2020-09-13 15:00:00 33.2 16 Este 35 Este 0 987.7 -- 20
2020-09-13 14:00:00 32.3 21 Este 39 Este 0 988 -- 22
2020-09-13 13:00:00 31.1 20 Este 33 Sudeste 0 988.8 -- 25
2020-09-13 12:00:00 28.7 17 Este 40 Nordeste 0 989.4 -- 29
2020-09-13 11:00:00 27.8 21 Este 37 Este 0 989.2 -- 31
2020-09-13 10:00:00 25.7 15 Sudeste 28 Este 0 989 -- 36
2020-09-13 09:00:00 21.2 8 Este 13 Este 0 988.9 -- 41
2020-09-13 08:00:00 19.4 8 Nordeste 13 Este 0 988.3 -- 43
2020-09-13 07:00:00 21.6 7 Nordeste 18 Sudeste 0 987.8 -- 35
2020-09-13 06:00:00 23.5 8 Sudeste 21 Sudeste 0 986.9 -- 31
2020-09-13 05:00:00 21.6 9 Sudeste 17 Este 0 986.5 -- 33
2020-09-13 04:00:00 22.3 11 Nordeste 18 Este 0 985.6 -- 32
2020-09-13 03:00:00 21.4 8 Este 12 Nordeste 0 985.5 -- 39
2020-09-13 02:00:00 22.6 7 Este 13 Este 0 985.3 -- 32
2020-09-13 01:00:00 23 8 Este 13 Este 0 985.3 -- 34
2020-09-13 00:00:00 23.2 10 Este 14 Este 0 985.1 -- 35
2020-09-12 23:00:00 24.4 4 Este 10 Sudeste 0 985 -- 34
2020-09-12 22:00:00 26.9 6 Este 10 Nordeste 0 984.5 -- 29
2020-09-12 21:00:00 29.9 6 Nordeste 12 Nordeste 0 983.7 -- 22
2020-09-12 20:00:00 33.3 8 Nordeste 17 Nordeste 0 983.3 -- 16
2020-09-12 19:00:00 35.3 10 Nordeste 19 Nordeste 0 983.1 -- 14
2020-09-12 18:00:00 35.5 7 Este 19 Sudeste 0 983.2 -- 13
2020-09-12 17:00:00 37.2 6 Sur 21 Sudeste 0 983.3 -- 12
2020-09-12 16:00:00 35.9 12 Este 27 Este 0 983.6 -- 13
2020-09-12 15:00:00 35.4 13 Este 29 Sudeste 0 984 -- 14
2020-09-12 14:00:00 33.5 14 Este 28 Este 0 984.7 -- 17
2020-09-12 13:00:00 31.8 14 Este 30 Este 0 985.3 -- 21
2020-09-12 12:00:00 29.7 15 Este 31 Este 0 985.6 -- 25
2020-09-12 11:00:00 27.4 14 Este 32 Este 0 985.4 -- 28
2020-09-12 10:00:00 23.9 13 Este 19 Nordeste 0 985 -- 33
2020-09-12 09:00:00 19.1 8 Nordeste 13 Nordeste 0 984.5 -- 48
2020-09-12 08:00:00 17.8 9 Nordeste 14 Nordeste 0 983.8 -- 49
2020-09-12 07:00:00 18.1 9 Nordeste 16 Nordeste 0 983.2 -- 48
2020-09-12 06:00:00 17.2 5 Este 12 Este 0 982.8 -- 50
2020-09-12 05:00:00 17.7 7 Este 15 Este 0 982.7 -- 48
2020-09-12 04:00:00 17.8 9 Este 13 Este 0 982.2 -- 50
2020-09-12 03:00:00 17.5 5 Sudeste 7 Sudeste 0 982.2 -- 53
2020-09-12 02:00:00 18.6 5 Este 12 Este 0 981.9 -- 48
2020-09-12 01:00:00 19.8 0 Calma 7 Sudeste 0 981.7 -- 42
2020-09-12 00:00:00 21 6 Sur 13 Sur 0 981.6 -- 38
2020-09-11 23:00:00 22.9 0 Calma 10 Nordeste 0 981.2 -- 34
2020-09-11 22:00:00 25.2 6 Nordeste 8 Nordeste 0 980.8 -- 27
2020-09-11 21:00:00 29.1 4 Oeste 9 Oeste 0 980.2 -- 20
2020-09-11 20:00:00 33 4 Oeste 13 Oeste 0 980.1 -- 14
2020-09-11 19:00:00 34.9 4 Sudoeste 14 Este 0 980 -- 13
2020-09-11 18:00:00 34.8 7 Este 20 Norte 0 980.3 -- 13
2020-09-11 17:00:00 35.3 7 Noroeste 19 Sudoeste 0 980.8 -- 13
2020-09-11 16:00:00 35.6 9 Sudoeste 21 Oeste 0 981.4 -- 13
2020-09-11 15:00:00 33.5 5 Sur 20 Nordeste 0 982 -- 16
2020-09-11 14:00:00 32 9 Este 21 Este 0 982.6 -- 21
2020-09-11 13:00:00 30.3 16 Este 30 Este 0 983.4 -- 23
2020-09-11 12:00:00 28 13 Este 27 Este 0 983.9 -- 25
2020-09-11 11:00:00 26.2 10 Este 25 Sudeste 0 984.1 -- 28
2020-09-11 10:00:00 22.9 10 Este 20 Este 0 983.8 -- 33
2020-09-11 09:00:00 18 4 Este 11 Nordeste 0 983.6 -- 51
2020-09-11 08:00:00 15.5 7 Nordeste 12 Nordeste 0 983.2 -- 59
2020-09-11 07:00:00 16.4 8 Nordeste 12 Nordeste 0 983 -- 56
2020-09-11 06:00:00 16 8 Nordeste 13 Nordeste 0 982.9 -- 61
2020-09-11 05:00:00 16.1 6 Nordeste 13 Sudeste 0 982.9 -- 59
2020-09-11 04:00:00 16.9 5 Nordeste 8 Nordeste 0 982.5 -- 57
2020-09-11 03:00:00 17.3 3 Norte 10 Nordeste 0 982.8 -- 50
2020-09-11 02:00:00 19.3 7 Nordeste 12 Este 0 983 -- 45
2020-09-11 01:00:00 19.6 6 Este 9 Este 0 983.2 -- 44
2020-09-11 00:00:00 20.6 6 Este 14 Sudeste 0 983.3 -- 43
2020-09-10 23:00:00 22.6 5 Nordeste 8 Sudeste 0 983.2 -- 34
2020-09-10 22:00:00 24.6 3 Norte 8 Este 0 982.9 -- 29
2020-09-10 21:00:00 27.9 0 Calma 7 Sur 0 982.4 -- 23
2020-09-10 20:00:00 32 0 Calma 9 Sur 0 982.4 -- 16
2020-09-10 19:00:00 34.3 4 Sudoeste 14 Noroeste 0 982.6 -- 14
2020-09-10 18:00:00 34.6 4 Oeste 16 Nordeste 0 983 -- 14
2020-09-10 17:00:00 35 6 Oeste 23 Sudoeste 0 983.8 -- 14
2020-09-10 16:00:00 34.1 5 Oeste 17 Sudoeste 0 984.5 -- 14
2020-09-10 15:00:00 32.9 5 Sudoeste 21 Nordeste 0 985.5 -- 17
2020-09-10 14:00:00 31.1 8 Este 23 Este 0 986.4 -- 21
2020-09-10 13:00:00 29.4 12 Este 27 Este 0 987.4 -- 25
2020-09-10 12:00:00 28.3 13 Este 31 Sudeste 0 988.1 -- 28
2020-09-10 11:00:00 26 18 Este 35 Este 0 988.2 -- 32
2020-09-10 10:00:00 23.1 11 Este 19 Este 0 988.3 -- 38
2020-09-10 09:00:00 16.1 2 Nordeste 6 Nordeste 0 987.9 -- 57
2020-09-10 08:00:00 12.6 0 Calma 9 Este 0 987.4 -- 71
2020-09-10 07:00:00 13.9 6 Nordeste 12 Nordeste 0 986.9 -- 66
2020-09-10 06:00:00 14.3 7 Este 15 Este 0 986.7 -- 58
2020-09-10 05:00:00 14.1 4 Este 10 Sudeste 0 986.6 -- 66
2020-09-10 04:00:00 15.7 6 Este 10 Este 0 986.7 -- 60
2020-09-10 03:00:00 15.6 7 Este 10 Este 0 987.1 -- 57
2020-09-10 02:00:00 16.5 0 Calma 8 Sudoeste 0 987.2 -- 54
2020-09-10 01:00:00 17.4 4 Sur 16 Sur 0 987.4 -- 54
2020-09-10 00:00:00 18.8 4 Sur 8 Sudeste 0 987.4 -- 48
2020-09-09 23:00:00 19.9 4 Oeste 8 Nordeste 0 987.2 -- 40
2020-09-09 22:00:00 23.3 4 Nordeste 8 Nordeste 0 987 -- 30
2020-09-09 21:00:00 27 3 Norte 8 Nordeste 0 986.2 -- 25
2020-09-09 20:00:00 30.6 5 Norte 12 Sudoeste 0 986.1 -- 18
2020-09-09 19:00:00 32.4 3 Oeste 15 Oeste 0 986.1 -- 15
2020-09-09 18:00:00 32.8 10 Oeste 20 Sudoeste 0 986.3 -- 15
2020-09-09 17:00:00 32.7 8 Sudeste 16 Sudeste 0 986.6 -- 15
2020-09-09 16:00:00 32.1 4 Oeste 22 Este 0 987.3 -- 15
2020-09-09 15:00:00 31.3 8 Sudeste 22 Este 0 987.9 -- 16
2020-09-09 14:00:00 30 11 Sudeste 28 Sudeste 0 988.6 -- 21
2020-09-09 13:00:00 28.4 13 Este 30 Sudeste 0 989.6 -- 24
2020-09-09 12:00:00 26.8 15 Este 32 Este 0 989.9 -- 27
2020-09-09 11:00:00 24.8 16 Este 32 Sudeste 0 990.3 -- 30
2020-09-09 10:00:00 21.2 10 Este 21 Este 0 989.9 -- 40
2020-09-09 09:00:00 16.8 6 Nordeste 12 Nordeste 0 989.5 -- 50
2020-09-09 08:00:00 13.1 10 Nordeste 14 Nordeste 0 988.9 -- 59
2020-09-09 07:00:00 14 7 Este 12 Este 0 988.6 -- 54
2020-09-09 06:00:00 13.8 8 Este 13 Este 0 988.5 -- 54
2020-09-09 05:00:00 13.9 7 Nordeste 12 Este 0 988.4 -- 51
2020-09-09 04:00:00 14 8 Este 11 Este 0 988.1 -- 50
2020-09-09 03:00:00 15.5 2 Noroeste 12 Este 0 988.1 -- 43
2020-09-09 02:00:00 16.3 8 Este 11 Este 0 988 -- 41
2020-09-09 01:00:00 17.8 4 Sudeste 13 Sudeste 0 988.2 -- 39
2020-09-09 00:00:00 18.6 6 Sudeste 10 Sudeste 0 988.2 -- 39
2020-09-08 23:00:00 20.3 5 Este 9 Este 0 988.2 -- 32
2020-09-08 22:00:00 21.6 5 Nordeste 9 Nordeste 0 987.6 -- 30
2020-09-08 21:00:00 25.1 4 Este 15 Este 0 987.1 -- 23
2020-09-08 20:00:00 28.1 8 Este 22 Este 0 986.8 -- 18
2020-09-08 19:00:00 29.4 10 Este 32 Este 0 987 -- 16
2020-09-08 18:00:00 29.8 15 Sudeste 35 Este 0 987.1 -- 14
2020-09-08 17:00:00 29.1 17 Sudeste 39 Sudeste 0 987.5 -- 20
2020-09-08 16:00:00 28.8 16 Sudeste 37 Sudeste 0 988.2 -- 23
2020-09-08 15:00:00 28 18 Sudeste 39 Este 0 988.8 -- 24
2020-09-08 14:00:00 26.9 19 Este 39 Sudeste 0 989.4 -- 28
2020-09-08 13:00:00 25.5 19 Este 39 Este 0 990 -- 33
2020-09-08 12:00:00 23.8 20 Sudeste 45 Este 0 990.4 -- 36
2020-09-08 11:00:00 22.4 19 Este 37 Sudeste 0 990.8 -- 39
2020-09-08 10:00:00 20.3 15 Este 31 Sudeste 0 990.9 -- 33
2020-09-08 09:00:00 17.4 8 Este 18 Sudeste 0 990.9 -- 40
2020-09-08 08:00:00 14.4 6 Sudeste 11 Este 0 990.1 -- 44
2020-09-08 07:00:00 15 5 Este 15 Sudeste 0 989.3 -- 40
2020-09-08 06:00:00 16 7 Este 12 Sudeste 0 988.8 -- 37
2020-09-08 05:00:00 16.2 5 Sur 15 Este 0 988.6 -- 41
2020-09-08 04:00:00 18.8 9 Nordeste 26 Este 0 988.4 -- 34
2020-09-08 03:00:00 19 10 Este 18 Este 0 988.1 -- 33
2020-09-08 02:00:00 17.8 3 Este 12 Nordeste 0 987.5 -- 35
2020-09-08 01:00:00 20.4 8 Nordeste 26 Este 0 987.1 -- 28
2020-09-08 00:00:00 23.2 11 Sudeste 22 Sudeste 0 986.8 -- 23
2020-09-07 23:00:00 23.4 8 Sudeste 16 Sudeste 0 986.1 -- 21
2020-09-07 22:00:00 24.5 7 Este 12 Este 0 985.6 -- 20
2020-09-07 21:00:00 27.9 8 Este 19 Este 0 984.4 -- 15
2020-09-07 20:00:00 30.7 7 Sudeste 18 Este 0 983.9 -- 16
2020-09-07 19:00:00 31.9 9 Nordeste 19 Nordeste 0 984 -- 15
2020-09-07 18:00:00 32.6 7 Sudeste 24 Este 0 984.2 -- 15
2020-09-07 17:00:00 32.4 9 Sudeste 26 Este 0 984.2 -- 15
2020-09-07 16:00:00 31.2 10 Este 28 Sudeste 0 984.9 -- 16
2020-09-07 15:00:00 30.2 14 Este 33 Este 0 985.7 -- 17
2020-09-07 14:00:00 29 13 Este 37 Este 0 986 -- 19
2020-09-07 13:00:00 27.9 14 Este 33 Sudeste 0 986.5 -- 22
2020-09-07 12:00:00 26.3 18 Este 35 Este 0 986.7 -- 24
2020-09-07 11:00:00 25 18 Este 39 Este 0 986.7 -- 27
2020-09-07 10:00:00 23.4 22 Este 38 Sudeste 0 985.9 -- 31
2020-09-07 09:00:00 21.9 14 Nordeste 25 Nordeste 0 985.3 -- 37
2020-09-07 08:00:00 20.4 9 Nordeste 19 Este 0 984.6 -- 41
2020-09-07 07:00:00 20.1 8 Nordeste 16 Este 0 983.8 -- 45
2020-09-07 06:00:00 19.2 9 Este 15 Este 0 983.7 -- 49
2020-09-07 05:00:00 18.7 5 Este 13 Sudeste 0 983.4 -- 53
2020-09-07 04:00:00 19.5 5 Sudeste 10 Nordeste 0 983 -- 51
2020-09-07 03:00:00 20 4 Norte 9 Norte 0 983 -- 46
2020-09-07 02:00:00 21.1 5 Oeste 8 Oeste 0 982.9 -- 42
2020-09-07 01:00:00 22.5 3 Oeste 7 Sur 0 982.8 -- 38
2020-09-07 00:00:00 24.1 6 Sudoeste 14 Sudeste 0 982.5 -- 35
2020-09-06 23:00:00 26.4 5 Oeste 8 Oeste 0 982.1 -- 29
2020-09-06 22:00:00 29.2 3 Sudoeste 18 Oeste 0 981.6 -- 25
2020-09-06 21:00:00 31.4 9 Oeste 20 Noroeste 0 980.7 -- 19
2020-09-06 20:00:00 34.7 7 Oeste 23 Oeste 0 980.6 -- 14
2020-09-06 19:00:00 36.3 9 Oeste 20 Oeste 0 980.9 -- 13
2020-09-06 18:00:00 37.2 7 Noroeste 21 Noroeste 0 981.2 -- 12
2020-09-06 17:00:00 37.4 6 Oeste 19 Oeste 0 981.7 -- 11
2020-09-06 16:00:00 36.5 6 Noroeste 18 Sudeste 0 982.3 -- 13
2020-09-06 15:00:00 34.7 5 Este 24 Este 0 983.1 -- 15
2020-09-06 14:00:00 33.8 9 Sudeste 29 Sudeste 0 983.6 -- 16
2020-09-06 13:00:00 31.9 13 Este 27 Este 0 984.2 -- 20
2020-09-06 12:00:00 30.1 17 Este 33 Este 0 984.6 -- 23
2020-09-06 11:00:00 28 19 Este 33 Sudeste 0 984.7 -- 27
2020-09-06 10:00:00 25.6 15 Este 30 Este 0 984.7 -- 34
2020-09-06 09:00:00 22.4 6 Este 14 Este 0 984.7 -- 46
2020-09-06 08:00:00 20 8 Este 15 Este 0 984.2 -- 52
2020-09-06 07:00:00 17.9 7 Nordeste 11 Nordeste 0 983.6 -- 49
2020-09-06 06:00:00 18.1 6 Nordeste 12 Norte 0 983.4 -- 47
2020-09-06 05:00:00 17 6 Nordeste 11 Nordeste 0 983.3 -- 58
2020-09-06 04:00:00 17.2 0 Calma 12 Nordeste 0 983.3 -- 62
2020-09-06 03:00:00 18.4 5 Este 10 Este 0 983 -- 62
2020-09-06 02:00:00 19.3 5 Norte 8 Norte 0 983.2 -- 54
2020-09-06 01:00:00 20.6 3 Sudoeste 10 Sudeste 0 983.1 -- 51
2020-09-06 00:00:00 23.3 2 Sudeste 8 Sudeste 0 983.1 -- 41
2020-09-05 23:00:00 24.3 6 Sudeste 10 Este 0 983.3 -- 39
2020-09-05 22:00:00 26.4 6 Norte 9 Norte 0 982.8 -- 29
2020-09-05 21:00:00 30.5 3 Este 6 Norte 0 982.5 -- 21
2020-09-05 20:00:00 34.3 2 Sur 6 Sur 0 982.4 -- 15
2020-09-05 19:00:00 35.4 5 Norte 18 Sur 0 982.6 -- 14
2020-09-05 18:00:00 36.7 6 Sur 17 Nordeste 0 983.1 -- 13
2020-09-05 17:00:00 36.1 6 Este 24 Sur 0 983.6 -- 13
2020-09-05 16:00:00 35.5 7 Este 21 Sudeste 0 984.6 -- 15
2020-09-05 15:00:00 35.1 7 Sudeste 25 Este 0 985.6 -- 18
2020-09-05 14:00:00 33.6 6 Sudeste 27 Este 0 986.2 -- 23
2020-09-05 13:00:00 30.8 12 Este 28 Este 0 987.1 -- 30
2020-09-05 12:00:00 29.4 9 Sudeste 31 Este 0 987.6 -- 33
2020-09-05 11:00:00 26.3 18 Este 37 Este 0 987.9 -- 39
2020-09-05 10:00:00 23.7 12 Este 22 Este 0 988 -- 41
2020-09-05 09:00:00 20.9 8 Este 14 Nordeste 0 987.9 -- 44
2020-09-05 08:00:00 17.3 8 Nordeste 13 Este 0 987.5 -- 51
2020-09-05 07:00:00 16.9 9 Nordeste 13 Nordeste 0 987.1 -- 53
2020-09-05 06:00:00 17.3 9 Nordeste 13 Nordeste 0 986.8 -- 56
2020-09-05 05:00:00 17.9 8 Este 14 Este 0 986.7 -- 50
2020-09-05 04:00:00 18 7 Norte 17 Norte 0 987 -- 49
2020-09-05 03:00:00 18.8 2 Norte 11 Sudeste 0 987.2 -- 48
2020-09-05 02:00:00 19.6 5 Sudeste 8 Sudeste 0 987.3 -- 52
2020-09-05 01:00:00 21.5 6 Este 9 Este 0 987.4 -- 44
2020-09-05 00:00:00 22.3 6 Este 9 Este 0 987.4 -- 39
2020-09-04 23:00:00 24.6 4 Nordeste 9 Nordeste 0 987.2 -- 33
2020-09-04 22:00:00 26.6 7 Nordeste 9 Nordeste 0 986.9 -- 26
2020-09-04 21:00:00 30.9 5 Este 9 Nordeste 0 986.4 -- 19
2020-09-04 20:00:00 34.1 6 Nordeste 12 Sudeste 0 986.2 -- 14
2020-09-04 19:00:00 35.2 5 Este 21 Este 0 986.4 -- 14
2020-09-04 18:00:00 35.9 7 Este 23 Sudeste 0 986.7 -- 13
2020-09-04 17:00:00 36 9 Sudeste 24 Sudeste 0 987 -- 13
2020-09-04 16:00:00 35.7 10 Sudeste 27 Sudeste 0 987.8 -- 15
2020-09-04 15:00:00 34.2 15 Este 34 Sudeste 0 988.8 -- 18
2020-09-04 14:00:00 32.9 14 Este 30 Este 0 989.6 -- 23
2020-09-04 13:00:00 31.4 14 Este 34 Sudeste 0 990.5 -- 27
2020-09-04 12:00:00 29.6 13 Este 33 Este 0 991 -- 30
2020-09-04 11:00:00 27 17 Este 35 Este 0 991 -- 35
2020-09-04 10:00:00 24.2 13 Este 21 Este 0 991 -- 38
2020-09-04 09:00:00 20.5 7 Nordeste 14 Nordeste 0 990.8 -- 42
2020-09-04 08:00:00 17 9 Nordeste 15 Este 0 990.1 -- 47
2020-09-04 07:00:00 17.2 9 Este 15 Este 0 989.2 -- 43
2020-09-04 06:00:00 19.1 9 Este 18 Este 0 988.8 -- 37
2020-09-04 05:00:00 17.1 9 Este 12 Este 0 988.3 -- 52
2020-09-04 04:00:00 18.2 5 Norte 17 Sudeste 0 988.3 -- 42
2020-09-04 03:00:00 19.1 8 Sudeste 16 Sudeste 0 988.2 -- 36
2020-09-04 02:00:00 19 6 Este 10 Este 0 988.3 -- 44
2020-09-04 01:00:00 21 8 Este 12 Este 0 988.2 -- 38
2020-09-04 00:00:00 23.6 5 Sudeste 13 Sudeste 0 987.9 -- 33
2020-09-03 23:00:00 24.1 7 Sudeste 12 Nordeste 0 987.6 -- 33
2020-09-03 22:00:00 26.8 8 Nordeste 12 Nordeste 0 987 -- 27
2020-09-03 21:00:00 29.8 6 Nordeste 11 Nordeste 0 986.5 -- 19
2020-09-03 20:00:00 33.3 7 Nordeste 13 Nordeste 0 986.1 -- 14
2020-09-03 19:00:00 34.4 6 Este 16 Norte 0 986.1 -- 13
2020-09-03 18:00:00 35 8 Este 18 Nordeste 0 986.1 -- 12
2020-09-03 17:00:00 35.2 8 Nordeste 18 Este 0 986.5 -- 12
2020-09-03 16:00:00 35 6 Norte 21 Este 0 987 -- 13
2020-09-03 15:00:00 34 6 Nordeste 23 Este 0 987.6 -- 14
2020-09-03 14:00:00 32.4 10 Este 22 Sudeste 0 988.2 -- 18
2020-09-03 13:00:00 30.7 14 Sudeste 29 Sudeste 0 988.6 -- 23
2020-09-03 12:00:00 28.5 12 Sudeste 26 Sudeste 0 988.8 -- 27
2020-09-03 11:00:00 25.8 14 Este 31 Este 0 988.8 -- 31
2020-09-03 10:00:00 23 16 Este 31 Este 0 988.7 -- 37
2020-09-03 09:00:00 19 8 Este 20 Nordeste 0 988.2 -- 38
2020-09-03 08:00:00 14.2 6 Este 12 Nordeste 0 987.5 -- 57
2020-09-03 07:00:00 14.3 5 Este 10 Este 0 986.7 -- 56
2020-09-03 06:00:00 14.7 8 Este 13 Este 0 986.2 -- 56
2020-09-03 05:00:00 14.2 8 Este 10 Este 0 985.8 -- 62
2020-09-03 04:00:00 14.6 4 Sudeste 6 Sudeste 0 985.7 -- 61
2020-09-03 03:00:00 15.6 2 Sudeste 11 Nordeste 0 985.4 -- 55
2020-09-03 02:00:00 16.7 6 Este 8 Este 0 985.3 -- 52
2020-09-03 01:00:00 17.7 5 Nordeste 8 Este 0 985 -- 47
2020-09-03 00:00:00 19.4 8 Este 9 Sudeste 0 984.6 -- 41
2020-09-02 23:00:00 21.4 3 Nordeste 6 Norte 0 984.4 -- 33
2020-09-02 22:00:00 24.8 6 Norte 10 Nordeste 0 983.9 -- 25
2020-09-02 21:00:00 28.5 6 Nordeste 7 Nordeste 0 983.1 -- 19
2020-09-02 20:00:00 31.6 4 Nordeste 13 Nordeste 0 982.6 -- 14
2020-09-02 19:00:00 32.8 3 Noroeste 13 Este 0 982.5 -- 13
2020-09-02 18:00:00 33.6 6 Sudeste 21 Este 0 982.4 -- 12
2020-09-02 17:00:00 34.4 5 Sur 21 Sudoeste 0 982.5 -- 11
2020-09-02 16:00:00 33.6 9 Sudeste 24 Sudeste 0 982.9 -- 12
2020-09-02 15:00:00 32.1 12 Sudeste 27 Este 0 983.3 -- 13
2020-09-02 14:00:00 31.1 12 Sudeste 27 Sudeste 0 983.7 -- 16
2020-09-02 13:00:00 28.9 11 Este 32 Sudeste 0 984.1 -- 22
2020-09-02 12:00:00 26.8 15 Sudeste 35 Este 0 984.6 -- 26
2020-09-02 11:00:00 24.9 15 Este 33 Este 0 984.4 -- 27
2020-09-02 10:00:00 21.6 17 Este 33 Este 0 984 -- 30
2020-09-02 09:00:00 16.2 6 Nordeste 13 Nordeste 0 983.6 -- 45
2020-09-02 08:00:00 13.2 8 Este 13 Nordeste 0 983.1 -- 53
2020-09-02 07:00:00 13.5 9 Nordeste 12 Nordeste 0 982.5 -- 53
2020-09-02 06:00:00 13.2 9 Nordeste 15 Nordeste 0 982.1 -- 57
2020-09-02 05:00:00 12.5 9 Norte 14 Nordeste 0 981.4 -- 53
2020-09-02 04:00:00 12.7 4 Sur 9 Sudoeste 0 980.8 -- 51
2020-09-02 03:00:00 13.4 4 Sur 10 Nordeste 0 980.6 -- 47
2020-09-02 02:00:00 15 5 Nordeste 6 Nordeste 0 980.2 -- 36
2020-09-02 01:00:00 16.3 0 Calma 9 Este 0 980.2 -- 36
2020-09-02 00:00:00 18.4 2 Nordeste 14 Este 0 979.9 -- 29
2020-09-01 23:00:00 19.5 0 Calma 7 Nordeste 0 979.7 -- 28
2020-09-01 22:00:00 23 8 Nordeste 12 Nordeste 0 979.4 -- 17
2020-09-01 21:00:00 27.6 4 Oeste 8 Oeste 0 978.8 -- 13
2020-09-01 20:00:00 30.9 2 Oeste 15 Sudoeste 0 978.5 -- 9
2020-09-01 19:00:00 31.6 10 Sudoeste 20 Sudoeste 0 978.6 -- 7
2020-09-01 18:00:00 32.3 9 Oeste 21 Oeste 0 978.8 -- 10
2020-09-01 17:00:00 32.7 8 Noroeste 25 Noroeste 0 979.2 -- 11
2020-09-01 16:00:00 31.8 8 Noroeste 23 Sudoeste 0 979.9 -- 11
2020-09-01 15:00:00 30.5 4 Noroeste 16 Este 0 980.6 -- 13
2020-09-01 14:00:00 30.5 4 Sur 17 Este 0 981.4 -- 14
2020-09-01 13:00:00 27.4 5 Este 16 Este 0 982 -- 16
2020-09-01 12:00:00 25.2 5 Este 15 Este 0 982.5 -- 21
2020-09-01 11:00:00 23.6 8 Este 15 Este 0 982.8 -- 24
2020-09-01 10:00:00 18.7 5 Nordeste 11 Este 0 982.9 -- 38
2020-09-01 09:00:00 15.1 5 Nordeste 10 Sudeste 0 982.8 -- 52
2020-09-01 08:00:00 14 7 Este 16 Norte 0 982.3 -- 54
2020-09-01 07:00:00 13.8 6 Sudeste 9 Sudeste 0 982 -- 50
2020-09-01 06:00:00 13.7 2 Oeste 6 Sur 0 982.8 -- 50
2020-09-01 05:00:00 13.8 4 Sur 7 Nordeste 0 983.2 -- 50
2020-09-01 04:00:00 14.5 5 Nordeste 9 Norte 0 983.1 -- 49
2020-09-01 03:00:00 14.6 6 Este 9 Este 0 983.4 -- 51
2020-09-01 02:00:00 15.1 5 Nordeste 9 Nordeste 0 983.8 -- 47
2020-09-01 01:00:00 13.9 5 Norte 8 Nordeste 0 983.9 -- 37
2020-09-01 00:00:00 15.5 5 Nordeste 8 Sudeste 0 983.8 -- 33
2020-08-31 23:00:00 17.3 4 Sur 5 Sur 0 983.7 -- 31
2020-08-31 22:00:00 20.4 3 Noroeste 4 Noroeste 0 983.7 -- 21
2020-08-31 21:00:00 24.6 2 Noroeste 9 Oeste 0 983.2 -- 14
2020-08-31 20:00:00 27.9 2 Noroeste 14 Oeste 0 983.4 -- 11
2020-08-31 19:00:00 29.3 8 Oeste 19 Oeste 0 983.9 -- 10
2020-08-31 18:00:00 29.5 6 Oeste 26 Oeste 0 984.3 -- 11
2020-08-31 17:00:00 30.3 6 Oeste 18 Nordeste 0 984.8 -- 12
2020-08-31 16:00:00 28.8 7 Norte 17 Nordeste 0 985.5 -- 13
2020-08-31 15:00:00 28 9 Norte 19 Este 0 986.4 -- 14
2020-08-31 14:00:00 26.8 4 Este 37 Este 0 987.2 -- 19
2020-08-31 13:00:00 25.3 10 Este 28 Sudeste 0 987.4 -- 23
2020-08-31 12:00:00 23.7 15 Sudeste 35 Este 0 988.3 -- 26
2020-08-31 11:00:00 21.6 15 Este 33 Sudeste 0 988.3 -- 30
2020-08-31 10:00:00 19.2 13 Este 26 Este 0 988.5 -- 35
2020-08-31 09:00:00 15.3 7 Este 18 Sudeste 0 988.2 -- 45
2020-08-31 08:00:00 11.3 7 Este 11 Sudeste 0 987.6 -- 51
2020-08-31 07:00:00 11.8 7 Este 14 Este 0 986.9 -- 49
2020-08-31 06:00:00 13.9 10 Este 16 Este 0 986.5 -- 44
2020-08-31 05:00:00 14.2 9 Nordeste 15 Nordeste 0 986.7 -- 42
2020-08-31 04:00:00 13.8 10 Nordeste 13 Nordeste 0 986.6 -- 46
2020-08-31 03:00:00 14.3 9 Nordeste 13 Nordeste 0 986.3 -- 45
2020-08-31 02:00:00 15.7 8 Nordeste 12 Nordeste 0 986 -- 35
2020-08-31 01:00:00 18.2 7 Este 14 Sudeste 0 985.6 -- 29
2020-08-31 00:00:00 19.3 7 Sudeste 24 Este 0 985.1 -- 29
2020-08-30 23:00:00 20.6 10 Este 22 Sudeste 0 984.3 -- 26
2020-08-30 22:00:00 22 8 Este 14 Nordeste 0 983.5 -- 26
2020-08-30 21:00:00 24 5 Nordeste 9 Nordeste 0 982.5 -- 24
2020-08-30 20:00:00 26 4 Nordeste 12 Norte 0 981.9 -- 20
2020-08-30 19:00:00 27.3 3 Noroeste 15 Oeste 0 981.7 -- 17
2020-08-30 18:00:00 27.1 5 Este 19 Norte 0 981.6 -- 19
2020-08-30 17:00:00 27.9 7 Oeste 18 Oeste 0 981.9 -- 17
2020-08-30 16:00:00 27.4 6 Oeste 14 Sur 0 982.5 -- 18
2020-08-30 15:00:00 25.8 6 Este 19 Este 0 983 -- 21
2020-08-30 14:00:00 24.9 9 Sudeste 21 Este 0 983.6 -- 23
2020-08-30 13:00:00 23.5 10 Sudeste 30 Este 0 984 -- 25
2020-08-30 12:00:00 22.2 14 Sudeste 33 Sudeste 0 984.3 -- 27
2020-08-30 11:00:00 20.7 17 Este 37 Este 0 984.2 -- 30
2020-08-30 10:00:00 18.1 14 Este 26 Este 0 983.9 -- 39
2020-08-30 09:00:00 16.3 9 Este 18 Este 0 983.4 -- 47
2020-08-30 08:00:00 13.8 10 Nordeste 15 Nordeste 0 982.8 -- 56
2020-08-30 07:00:00 13.9 9 Nordeste 15 Nordeste 0 982.5 -- 56
2020-08-30 06:00:00 13.7 9 Nordeste 20 Este 0 982 -- 57
2020-08-30 05:00:00 15.3 8 Nordeste 16 Norte 0 981.6 -- 50
2020-08-30 04:00:00 15.8 8 Nordeste 18 Sudeste 0 981.3 -- 45
2020-08-30 03:00:00 16 5 Este 14 Sudeste 0 980.8 -- 43
2020-08-30 02:00:00 -- -- -- -- -- -- -- -- --
2020-08-30 01:00:00 -- -- -- -- -- -- -- -- --
2020-08-30 00:00:00 -- -- -- -- -- -- -- -- --
2020-08-29 23:00:00 -- -- -- -- -- -- -- -- --
2020-08-29 22:00:00 -- -- -- -- -- -- -- -- --
2020-08-29 21:00:00 -- -- -- -- -- -- -- -- --
2020-08-29 20:00:00 -- -- -- -- -- -- -- -- --
2020-08-29 19:00:00 -- -- -- -- -- -- -- -- --
2020-08-29 18:00:00 -- -- -- -- -- -- -- -- --
2020-08-29 17:00:00 -- -- -- -- -- -- -- -- --
2020-08-29 16:00:00 -- -- -- -- -- -- -- -- --
2020-08-29 15:00:00 -- -- -- -- -- -- -- -- --
2020-08-29 14:00:00 -- -- -- -- -- -- -- -- --
2020-08-29 13:00:00 -- -- -- -- -- -- -- -- --
2020-08-29 12:00:00 -- -- -- -- -- -- -- -- --
2020-08-29 11:00:00 -- -- -- -- -- -- -- -- --
2020-08-29 10:00:00 -- -- -- -- -- -- -- -- --
2020-08-29 09:00:00 15.6 7 Oeste 13 Oeste 0 976.8 -- 49
2020-08-29 08:00:00 12.6 5 Oeste 9 Noroeste 0 976.3 -- 55
2020-08-29 07:00:00 14.7 4 Norte 12 Sur 0 975.4 -- 49
2020-08-29 06:00:00 16.2 3 Este 18 Sur 0 974.9 -- 44
2020-08-29 05:00:00 18.2 10 Sur 19 Sur 0 974.2 -- 37
2020-08-29 04:00:00 17.1 10 Sur 17 Sur 0 974 -- 42
2020-08-29 03:00:00 17.7 3 Sudoeste 19 Oeste 0 973.9 -- 38
2020-08-29 02:00:00 20.9 10 Oeste 23 Oeste 0 973.7 -- 30
2020-08-29 01:00:00 22.2 8 Oeste 19 Oeste 0 973.9 -- 27
2020-08-29 00:00:00 24.2 12 Oeste 29 Oeste 0 974.2 -- 25
2020-08-28 23:00:00 25.3 14 Oeste 37 Oeste 0 974.3 -- 22
2020-08-28 22:00:00 26.7 16 Oeste 40 Noroeste 0 974 -- 20
2020-08-28 21:00:00 28.4 15 Noroeste 42 Noroeste 0 974 -- 15
2020-08-28 20:00:00 30.8 18 Oeste 47 Noroeste 0 973.9 -- 14
2020-08-28 19:00:00 32.6 20 Oeste 57 Oeste 0 974.1 -- 10
2020-08-28 18:00:00 33.5 22 Oeste 58 Oeste 0 974.1 -- 11
2020-08-28 17:00:00 33.9 20 Oeste 58 Noroeste 0 974.6 -- 13
2020-08-28 16:00:00 33.3 27 Oeste 58 Noroeste 0 975 -- 13
2020-08-28 15:00:00 33.4 24 Oeste 58 Oeste 0 975.8 -- 15
2020-08-28 14:00:00 32.9 28 Oeste 60 Oeste 0 976.1 -- 16
2020-08-28 13:00:00 32.9 17 Oeste 41 Oeste 0 977.1 -- 22
2020-08-28 12:00:00 30.7 5 Noroeste 16 Noroeste 0 977.7 -- 32
2020-08-28 11:00:00 27.8 6 Noroeste 15 Noroeste 0 978 -- 39
2020-08-28 10:00:00 24.8 5 Noroeste 13 Oeste 0 978 -- 46
2020-08-28 09:00:00 21.8 3 Noroeste 11 Oeste 0 978 -- 54
2020-08-28 08:00:00 20.7 5 Oeste 22 Oeste 0 978 -- 59
2020-08-28 07:00:00 23.7 14 Sudoeste 27 Sudoeste 0 977.7 -- 54
2020-08-28 06:00:00 20.9 9 Sudoeste 14 Sudoeste 0 978.1 -- 64
2020-08-28 05:00:00 21 3 Sudeste 10 Este 0 978.3 -- 54
2020-08-28 04:00:00 22.4 5 Este 12 Sudoeste 0 978.6 -- 52
2020-08-28 03:00:00 25.3 7 Sudoeste 18 Sudoeste 0 979.1 -- 47
2020-08-28 02:00:00 25.7 7 Sudoeste 14 Sur 0 979.8 -- 37
2020-08-28 01:00:00 25.7 6 Sudoeste 10 Sudoeste 0 980 -- 32
2020-08-28 00:00:00 27.5 7 Sudoeste 13 Sudoeste 0 980 -- 28
2020-08-27 23:00:00 30.5 6 Noroeste 17 Norte 0 980.2 -- 23
2020-08-27 22:00:00 32.4 7 Noroeste 22 Noroeste 0 980.1 -- 21
2020-08-27 21:00:00 34.3 9 Oeste 30 Oeste 0 980.1 -- 21
2020-08-27 20:00:00 36.7 10 Oeste 34 Oeste 0 980.2 -- 17
2020-08-27 19:00:00 38.4 13 Oeste 30 Noroeste 0 980.4 -- 14
2020-08-27 18:00:00 39.4 13 Oeste 31 Oeste 0 981 -- 12
2020-08-27 17:00:00 39.5 10 Oeste 26 Noroeste 0 981.7 -- 11
2020-08-27 16:00:00 38.9 8 Noroeste 23 Oeste 0 982.6 -- 13
2020-08-27 15:00:00 37.9 7 Noroeste 22 Sudoeste 0 983.6 -- 14
2020-08-27 14:00:00 36.4 8 Oeste 18 Sudoeste 0 984.6 -- 16
2020-08-27 13:00:00 34 6 Noroeste 15 Noroeste 0 985.2 -- 21
2020-08-27 12:00:00 31.9 3 Sudoeste 13 Norte 0 985.7 -- 24
2020-08-27 11:00:00 29.4 3 Sudoeste 10 Oeste 0 985.8 -- 29
2020-08-27 10:00:00 25.2 4 Este 11 Este 0 985.8 -- 29
2020-08-27 09:00:00 19.9 6 Este 11 Este 0 985.7 -- 46
2020-08-27 08:00:00 16.2 6 Este 8 Este 0 985.5 -- 57
2020-08-27 07:00:00 15.9 3 Este 5 Nordeste 0 985.1 -- 55
2020-08-27 06:00:00 16.6 4 Nordeste 4 Nordeste 0 984.9 -- 48
2020-08-27 05:00:00 17.8 3 Este 9 Este 0 985 -- 44
2020-08-27 04:00:00 18.9 4 Este 8 Este 0 985.2 -- 37
2020-08-27 03:00:00 21 3 Nordeste 11 Norte 0 985.3 -- 31
2020-08-27 02:00:00 22.5 7 Norte 14 Oeste 0 985.5 -- 28
2020-08-27 01:00:00 25.5 10 Sudoeste 22 Sudoeste 0 985.3 -- 27
2020-08-27 00:00:00 24.8 8 Oeste 11 Sudoeste 0 985.3 -- 23
2020-08-26 23:00:00 25.5 8 Sudoeste 9 Sudoeste 0 985.1 -- 21
2020-08-26 22:00:00 28.7 5 Oeste 9 Oeste 0 984.8 -- 20
2020-08-26 21:00:00 33.9 5 Oeste 15 Oeste 0 984.2 -- 13
2020-08-26 20:00:00 37.3 7 Oeste 21 Noroeste 0 984 -- 10
2020-08-26 19:00:00 38.8 9 Oeste 27 Sudoeste 0 984.3 -- 8
2020-08-26 18:00:00 39.6 11 Oeste 39 Oeste 0 984.4 -- 8
2020-08-26 17:00:00 39.5 11 Noroeste 32 Noroeste 0 984.6 -- 8
2020-08-26 16:00:00 39.9 9 Noroeste 24 Noroeste 0 985.1 -- 9
2020-08-26 15:00:00 38.4 12 Noroeste 24 Oeste 0 985.5 -- 9
2020-08-26 14:00:00 37.6 7 Oeste 22 Oeste 0 986 -- 12
2020-08-26 13:00:00 35.5 6 Oeste 15 Oeste 0 986.5 -- 14
2020-08-26 12:00:00 32.8 5 Norte 13 Noroeste 0 986.6 -- 18
2020-08-26 11:00:00 29.9 4 Noroeste 12 Oeste 0 986.4 -- 23
2020-08-26 10:00:00 25.9 2 Sudeste 8 Nordeste 0 985.9 -- 31
2020-08-26 09:00:00 20.2 4 Nordeste 9 Norte 0 985.5 -- 49
2020-08-26 08:00:00 16.6 4 Este 9 Este 0 984.9 -- 57
2020-08-26 07:00:00 17.5 4 Sudeste 9 Sudeste 0 984.6 -- 57
2020-08-26 06:00:00 17.7 4 Sudeste 9 Este 0 984.5 -- 55
2020-08-26 05:00:00 18 2 Este 5 Noroeste 0 984.2 -- 51
2020-08-26 04:00:00 19.3 3 Nordeste 6 Sur 0 984 -- 45
2020-08-26 03:00:00 20.1 3 Sudeste 11 Este 0 983.8 -- 45
2020-08-26 02:00:00 22.1 5 Oeste 10 Sudoeste 0 983.7 -- 35
2020-08-26 01:00:00 23.8 4 Oeste 16 Noroeste 0 983.7 -- 32
2020-08-26 00:00:00 24.7 8 Oeste 13 Oeste 0 983.4 -- 30
2020-08-25 23:00:00 26 5 Sudoeste 9 Norte 0 983 -- 30
2020-08-25 22:00:00 30.3 4 Noroeste 13 Noroeste 0 982.3 -- 21
2020-08-25 21:00:00 34.2 4 Noroeste 15 Norte 0 981.6 -- 16
2020-08-25 20:00:00 37 8 Noroeste 19 Noroeste 0 981.2 -- 13
2020-08-25 19:00:00 38.5 9 Noroeste 23 Noroeste 0 981.4 -- 11
2020-08-25 18:00:00 39.1 8 Noroeste 23 Noroeste 0 981.4 -- 11
2020-08-25 17:00:00 39.2 7 Noroeste 23 Norte 0 981.7 -- 11
2020-08-25 16:00:00 38.4 8 Oeste 29 Norte 0 982.3 -- 12
2020-08-25 15:00:00 38.6 5 Sudoeste 21 Sudoeste 0 982.8 -- 12
2020-08-25 14:00:00 36.3 6 Oeste 16 Sudoeste 0 983.4 -- 14
2020-08-25 13:00:00 34.5 5 Sudeste 15 Sudeste 0 983.8 -- 16
2020-08-25 12:00:00 31.7 7 Nordeste 17 Este 0 984 -- 22
2020-08-25 11:00:00 28.4 5 Nordeste 12 Norte 0 983.8 -- 27
2020-08-25 10:00:00 24 3 Este 6 Este 0 983.6 -- 40
2020-08-25 09:00:00 19.2 3 Norte 5 Nordeste 0 983.3 -- 58
2020-08-25 08:00:00 14.7 0 Calma 5 Este 0 982.6 -- 69
2020-08-25 07:00:00 15.3 2 Sur 5 Sur 0 982.1 -- 70
2020-08-25 06:00:00 16.1 2 Sudeste 5 Sudoeste 0 982.1 -- 66
2020-08-25 05:00:00 16.8 2 Noroeste 7 Norte 0 982.1 -- 62
2020-08-25 04:00:00 18 3 Sur 6 Este 0 981.8 -- 58
2020-08-25 03:00:00 19.3 4 Sudeste 8 Nordeste 0 981.5 -- 53
2020-08-25 02:00:00 20.7 7 Nordeste 10 Nordeste 0 981.6 -- 50
2020-08-25 01:00:00 21.4 3 Noroeste 8 Noroeste 0 981.6 -- 39
2020-08-25 00:00:00 23.6 4 Sur 9 Sudoeste 0 981.4 -- 33
2020-08-24 23:00:00 24.4 6 Sudoeste 13 Noroeste 0 981.3 -- 30
2020-08-24 22:00:00 28.9 3 Noroeste 6 Noroeste 0 980.7 -- 22
2020-08-24 21:00:00 32.7 4 Oeste 11 Norte 0 980.4 -- 16
2020-08-24 20:00:00 36 6 Noroeste 18 Norte 0 980.3 -- 12
2020-08-24 19:00:00 37.4 4 Noroeste 14 Norte 0 980.6 -- 12
2020-08-24 18:00:00 37.7 6 Noroeste 27 Norte 0 980.9 -- 13
2020-08-24 17:00:00 37.5 5 Nordeste 21 Sudoeste 0 981.3 -- 12
2020-08-24 16:00:00 37.3 7 Sur 21 Este 0 982.2 -- 13
2020-08-24 15:00:00 35.6 9 Sudeste 26 Este 0 983 -- 17
2020-08-24 14:00:00 34.1 11 Este 28 Este 0 983.5 -- 24
2020-08-24 13:00:00 32.4 12 Este 32 Este 0 984.3 -- 32
2020-08-24 12:00:00 30.6 15 Sudeste 33 Este 0 984.9 -- 33
2020-08-24 11:00:00 28.5 19 Este 33 Este 0 984.9 -- 33
2020-08-24 10:00:00 25.8 11 Nordeste 24 Este 0 984.9 -- 29
2020-08-24 09:00:00 20.5 8 Nordeste 16 Nordeste 0 984.8 -- 40
2020-08-24 08:00:00 15.5 7 Este 10 Este 0 984.2 -- 50
2020-08-24 07:00:00 16 6 Sudeste 10 Sudeste 0 984 -- 50
2020-08-24 06:00:00 16.2 4 Sudeste 9 Este 0 983.9 -- 56
2020-08-24 05:00:00 16.8 3 Este 9 Sudeste 0 984 -- 52
2020-08-24 04:00:00 17.3 4 Sudeste 9 Sudeste 0 983.5 -- 50
2020-08-24 03:00:00 18.5 6 Norte 10 Norte 0 983.5 -- 43
2020-08-24 02:00:00 19.4 4 Oeste 9 Oeste 0 983.7 -- 40
2020-08-24 01:00:00 21.6 4 Sudoeste 10 Sur 0 983.7 -- 34
2020-08-24 00:00:00 23.7 6 Sur 9 Sur 0 983.6 -- 30
2020-08-23 23:00:00 25.4 5 Sudoeste 13 Norte 0 983.6 -- 27
2020-08-23 22:00:00 28.5 6 Norte 16 Norte 0 983.4 -- 22
2020-08-23 21:00:00 32.3 2 Sudoeste 9 Oeste 0 983.1 -- 15
2020-08-23 20:00:00 34.7 3 Noroeste 21 Oeste 0 983.3 -- 13
2020-08-23 19:00:00 35.6 5 Nordeste 19 Norte 0 983.6 -- 12
2020-08-23 18:00:00 36.4 8 Norte 24 Norte 0 984.1 -- 12
2020-08-23 17:00:00 36.2 6 Nordeste 24 Nordeste 0 984.7 -- 11
2020-08-23 16:00:00 36.5 5 Oeste 19 Norte 0 985.5 -- 12
2020-08-23 15:00:00 35.8 6 Sudeste 22 Nordeste 0 986.2 -- 12
2020-08-23 14:00:00 33.9 8 Este 26 Este 0 986.9 -- 13
2020-08-23 13:00:00 33.1 10 Sudeste 24 Este 0 987.6 -- 15
2020-08-23 12:00:00 30.7 14 Sudeste 28 Sur 0 988.3 -- 18
2020-08-23 11:00:00 27.5 7 Este 15 Sudeste 0 988.5 -- 23
2020-08-23 10:00:00 23.6 6 Este 10 Este 0 988.4 -- 29
2020-08-23 09:00:00 18.2 3 Este 8 Sudeste 0 988.4 -- 49
2020-08-23 08:00:00 14 4 Este 10 Este 0 988 -- 60
2020-08-23 07:00:00 13.7 6 Este 10 Este 0 987.8 -- 56
2020-08-23 06:00:00 14.3 8 Este 10 Nordeste 0 987.5 -- 51
2020-08-23 05:00:00 15.8 6 Sudeste 11 Sudeste 0 987.4 -- 49
2020-08-23 04:00:00 16.5 4 Nordeste 9 Nordeste 0 987.4 -- 47
2020-08-23 03:00:00 18.3 4 Este 11 Nordeste 0 987.4 -- 39
2020-08-23 02:00:00 20 8 Nordeste 12 Este 0 987.5 -- 32
2020-08-23 01:00:00 23.3 6 Sudoeste 13 Sudoeste 0 987.2 -- 24
2020-08-23 00:00:00 24.3 5 Sudoeste 14 Sudoeste 0 987.2 -- 23
2020-08-22 23:00:00 25.4 8 Sudoeste 15 Sudoeste 0 987 -- 21
2020-08-22 22:00:00 28.1 8 Sudoeste 19 Oeste 0 986.8 -- 16
2020-08-22 21:00:00 31.2 10 Oeste 21 Oeste 0 986.4 -- 13
2020-08-22 20:00:00 33.8 12 Oeste 26 Sudoeste 0 986.2 -- 10
2020-08-22 19:00:00 35.1 13 Oeste 25 Oeste 0 986.4 -- 10
2020-08-22 18:00:00 35.8 10 Oeste 27 Oeste 0 986.6 -- 10
2020-08-22 17:00:00 35.4 9 Noroeste 26 Noroeste 0 987.2 -- 12
2020-08-22 16:00:00 34.7 10 Oeste 23 Oeste 0 988.1 -- 10
2020-08-22 15:00:00 33.3 7 Noroeste 20 Oeste 0 988.8 -- 15
2020-08-22 14:00:00 31.6 9 Sudoeste 19 Sudoeste 0 989.3 -- 17
2020-08-22 13:00:00 29.7 5 Sudoeste 18 Oeste 0 989.7 -- 26
2020-08-22 12:00:00 27.4 5 Oeste 15 Oeste 0 989.9 -- 32
2020-08-22 11:00:00 25 4 Noroeste 12 Noroeste 0 989.9 -- 40
2020-08-22 10:00:00 22 4 Oeste 13 Oeste 0 989.7 -- 50
2020-08-22 09:00:00 17.6 0 Calma 8 Este 0 989.3 -- 73
2020-08-22 08:00:00 13.5 4 Oeste 7 Norte 0 988.8 -- 84
2020-08-22 07:00:00 13.8 0 Calma 4 Oeste 0 988.1 -- 83
2020-08-22 06:00:00 14.7 0 Calma 5 Sudeste 0 987.6 -- 79
2020-08-22 05:00:00 16.8 3 Nordeste 10 Nordeste 0 987.2 -- 70
2020-08-22 04:00:00 18.4 6 Nordeste 9 Nordeste 0 987 -- 64
2020-08-22 03:00:00 21.1 5 Sudoeste 17 Sudoeste 0 986.7 -- 55
2020-08-22 02:00:00 22.1 11 Sudoeste 18 Oeste 0 986.3 -- 51
2020-08-22 01:00:00 22 10 Sudoeste 18 Sudoeste 0 986.2 -- 57
2020-08-22 00:00:00 22.4 9 Sudoeste 15 Sudoeste 0 986 -- 56
2020-08-21 23:00:00 24.6 5 Oeste 17 Noroeste 0 985.9 -- 51
2020-08-21 22:00:00 26.5 8 Oeste 24 Noroeste 0 985.4 -- 48
2020-08-21 21:00:00 28.4 7 Oeste 25 Noroeste 0 984.6 -- 44
2020-08-21 20:00:00 29.6 9 Noroeste 31 Noroeste 0 984.2 -- 42
2020-08-21 19:00:00 31.4 10 Oeste 36 Oeste 0 984.1 -- 36
2020-08-21 18:00:00 32 15 Noroeste 39 Noroeste 0 983.9 -- 37
2020-08-21 17:00:00 31.9 16 Noroeste 37 Sudoeste 0 983.9 -- 39
2020-08-21 16:00:00 32.1 16 Oeste 32 Noroeste 0 983.9 -- 39
2020-08-21 15:00:00 31.4 10 Noroeste 30 Oeste 0 984.1 -- 41
2020-08-21 14:00:00 31.6 7 Noroeste 27 Oeste 0 984 -- 39
2020-08-21 13:00:00 29.7 10 Oeste 24 Oeste 0 984.1 -- 43
2020-08-21 12:00:00 29 8 Sudoeste 19 Sur 0 984 -- 46
2020-08-21 11:00:00 26.5 10 Oeste 19 Oeste 0 983.9 -- 58
2020-08-21 10:00:00 24.8 8 Oeste 24 Oeste 0 983.6 -- 67
2020-08-21 09:00:00 24.3 14 Oeste 22 Oeste 0 983 -- 70
2020-08-21 08:00:00 21.2 5 Sudoeste 14 Oeste 0 982.1 -- 81
2020-08-21 07:00:00 21.6 9 Oeste 20 Oeste 0 981.6 -- 80
2020-08-21 06:00:00 22 12 Sudoeste 24 Sudoeste 0 981.1 -- 78
2020-08-21 05:00:00 22.7 15 Sudoeste 26 Sudoeste 0 980.9 -- 75
2020-08-21 04:00:00 23.3 14 Sudoeste 29 Oeste 0 980.6 -- 72
2020-08-21 03:00:00 24.4 14 Oeste 28 Oeste 0 980.3 -- 68
2020-08-21 02:00:00 25.2 12 Oeste 22 Oeste 0 980 -- 63
2020-08-21 01:00:00 26.1 10 Oeste 28 Oeste 0 979.4 -- 57
2020-08-21 00:00:00 27.2 11 Oeste 30 Noroeste 0 979 -- 51